sensor_id;sensor_type;location;lat;lon;timestamp;P1;durP1;ratioP1;P2;durP2;ratioP2
82342;SDS011;72585;56.868;60.610;2023-09-19T00:00:04;5.70;;;4.30;;
82342;SDS011;72585;56.868;60.610;2023-09-19T00:02:31;9.48;;;4.72;;
82342;SDS011;72585;56.868;60.610;2023-09-19T00:04:58;9.85;;;4.82;;
82342;SDS011;72585;56.868;60.610;2023-09-19T00:07:23;6.38;;;4.30;;
82342;SDS011;72585;56.868;60.610;2023-09-19T00:09:49;5.65;;;4.78;;
82342;SDS011;72585;56.868;60.610;2023-09-19T00:12:14;5.50;;;4.63;;
82342;SDS011;72585;56.868;60.610;2023-09-19T00:14:40;9.48;;;5.20;;
82342;SDS011;72585;56.868;60.610;2023-09-19T00:17:05;8.13;;;5.65;;
82342;SDS011;72585;56.868;60.610;2023-09-19T00:19:33;7.32;;;4.97;;
82342;SDS011;72585;56.868;60.610;2023-09-19T00:21:59;5.95;;;4.75;;
82342;SDS011;72585;56.868;60.610;2023-09-19T00:24:24;7.35;;;5.18;;
82342;SDS011;72585;56.868;60.610;2023-09-19T00:26:50;8.93;;;5.32;;
82342;SDS011;72585;56.868;60.610;2023-09-19T00:29:15;9.68;;;5.65;;
82342;SDS011;72585;56.868;60.610;2023-09-19T00:31:44;12.02;;;5.30;;
82342;SDS011;72585;56.868;60.610;2023-09-19T00:34:09;7.53;;;5.03;;
82342;SDS011;72585;56.868;60.610;2023-09-19T00:36:36;8.88;;;5.25;;
82342;SDS011;72585;56.868;60.610;2023-09-19T00:39:03;6.97;;;5.38;;
82342;SDS011;72585;56.868;60.610;2023-09-19T00:41:30;7.72;;;4.80;;
82342;SDS011;72585;56.868;60.610;2023-09-19T00:43:56;5.57;;;4.50;;
82342;SDS011;72585;56.868;60.610;2023-09-19T00:46:21;6.65;;;4.72;;
82342;SDS011;72585;56.868;60.610;2023-09-19T00:48:47;7.57;;;5.28;;
82342;SDS011;72585;56.868;60.610;2023-09-19T00:51:12;8.70;;;4.80;;
82342;SDS011;72585;56.868;60.610;2023-09-19T00:53:44;7.45;;;5.28;;
82342;SDS011;72585;56.868;60.610;2023-09-19T00:56:11;11.02;;;6.18;;
82342;SDS011;72585;56.868;60.610;2023-09-19T00:58:37;14.52;;;4.88;;
82342;SDS011;72585;56.868;60.610;2023-09-19T01:01:03;13.65;;;5.32;;
82342;SDS011;72585;56.868;60.610;2023-09-19T01:03:32;8.05;;;5.35;;
82342;SDS011;72585;56.868;60.610;2023-09-19T01:05:59;6.43;;;4.72;;
82342;SDS011;72585;56.868;60.610;2023-09-19T01:08:25;6.95;;;4.80;;
82342;SDS011;72585;56.868;60.610;2023-09-19T01:11:17;10.27;;;5.20;;
82342;SDS011;72585;56.868;60.610;2023-09-19T01:16:32;6.75;;;5.45;;
82342;SDS011;72585;56.868;60.610;2023-09-19T01:22:11;12.18;;;6.20;;
82342;SDS011;72585;56.868;60.610;2023-09-19T01:27:50;7.53;;;4.45;;
82342;SDS011;72585;56.868;60.610;2023-09-19T01:30:14;9.60;;;4.93;;
82342;SDS011;72585;56.868;60.610;2023-09-19T01:32:39;5.53;;;4.25;;
82342;SDS011;72585;56.868;60.610;2023-09-19T01:35:06;8.07;;;5.57;;
82342;SDS011;72585;56.868;60.610;2023-09-19T01:37:31;11.45;;;4.97;;
82342;SDS011;72585;56.868;60.610;2023-09-19T01:40:02;7.68;;;5.20;;
82342;SDS011;72585;56.868;60.610;2023-09-19T01:47:53;9.40;;;5.03;;
82342;SDS011;72585;56.868;60.610;2023-09-19T01:52:49;8.35;;;5.63;;
82342;SDS011;72585;56.868;60.610;2023-09-19T01:55:17;8.68;;;5.80;;
82342;SDS011;72585;56.868;60.610;2023-09-19T02:00:11;7.10;;;5.22;;
82342;SDS011;72585;56.868;60.610;2023-09-19T02:02:38;10.27;;;5.47;;
82342;SDS011;72585;56.868;60.610;2023-09-19T02:05:05;5.93;;;4.90;;
82342;SDS011;72585;56.868;60.610;2023-09-19T02:07:31;7.53;;;5.28;;
82342;SDS011;72585;56.868;60.610;2023-09-19T02:09:59;6.95;;;4.75;;
82342;SDS011;72585;56.868;60.610;2023-09-19T02:12:31;9.57;;;4.78;;
82342;SDS011;72585;56.868;60.610;2023-09-19T02:14:58;9.77;;;5.05;;
82342;SDS011;72585;56.868;60.610;2023-09-19T02:17:24;7.50;;;5.28;;
82342;SDS011;72585;56.868;60.610;2023-09-19T02:19:53;7.45;;;5.65;;
82342;SDS011;72585;56.868;60.610;2023-09-19T02:22:18;7.95;;;4.75;;
82342;SDS011;72585;56.868;60.610;2023-09-19T02:24:43;7.38;;;5.07;;
82342;SDS011;72585;56.868;60.610;2023-09-19T02:27:09;6.35;;;4.28;;
82342;SDS011;72585;56.868;60.610;2023-09-19T02:29:37;9.45;;;5.32;;
82342;SDS011;72585;56.868;60.610;2023-09-19T02:32:03;14.57;;;5.18;;
82342;SDS011;72585;56.868;60.610;2023-09-19T02:34:28;12.65;;;4.85;;
82342;SDS011;72585;56.868;60.610;2023-09-19T02:36:54;9.35;;;4.82;;
82342;SDS011;72585;56.868;60.610;2023-09-19T02:39:21;9.73;;;5.25;;
82342;SDS011;72585;56.868;60.610;2023-09-19T02:41:46;11.10;;;4.85;;
82342;SDS011;72585;56.868;60.610;2023-09-19T02:44:11;6.28;;;4.38;;
82342;SDS011;72585;56.868;60.610;2023-09-19T02:46:37;7.10;;;4.32;;
82342;SDS011;72585;56.868;60.610;2023-09-19T02:49:03;7.60;;;4.45;;
82342;SDS011;72585;56.868;60.610;2023-09-19T02:51:31;10.52;;;4.90;;
82342;SDS011;72585;56.868;60.610;2023-09-19T02:53:57;10.90;;;5.65;;
82342;SDS011;72585;56.868;60.610;2023-09-19T02:56:22;9.20;;;4.88;;
82342;SDS011;72585;56.868;60.610;2023-09-19T02:58:50;8.65;;;4.40;;
82342;SDS011;72585;56.868;60.610;2023-09-19T03:01:16;13.98;;;5.30;;
82342;SDS011;72585;56.868;60.610;2023-09-19T03:03:43;9.73;;;5.05;;
82342;SDS011;72585;56.868;60.610;2023-09-19T03:06:10;10.77;;;5.63;;
82342;SDS011;72585;56.868;60.610;2023-09-19T03:08:36;5.75;;;4.88;;
82342;SDS011;72585;56.868;60.610;2023-09-19T03:11:04;9.75;;;5.97;;
82342;SDS011;72585;56.868;60.610;2023-09-19T03:13:31;6.82;;;5.25;;
82342;SDS011;72585;56.868;60.610;2023-09-19T03:15:56;7.63;;;5.90;;
82342;SDS011;72585;56.868;60.610;2023-09-19T03:18:23;8.35;;;5.03;;
82342;SDS011;72585;56.868;60.610;2023-09-19T03:20:53;6.60;;;5.70;;
82342;SDS011;72585;56.868;60.610;2023-09-19T03:23:20;9.82;;;6.13;;
82342;SDS011;72585;56.868;60.610;2023-09-19T03:25:45;7.85;;;4.90;;
82342;SDS011;72585;56.868;60.610;2023-09-19T03:28:11;14.30;;;5.55;;
82342;SDS011;72585;56.868;60.610;2023-09-19T03:30:36;11.18;;;5.93;;
82342;SDS011;72585;56.868;60.610;2023-09-19T03:33:01;18.50;;;5.30;;
82342;SDS011;72585;56.868;60.610;2023-09-19T03:35:27;8.93;;;5.40;;
82342;SDS011;72585;56.868;60.610;2023-09-19T03:37:52;9.45;;;5.15;;
82342;SDS011;72585;56.868;60.610;2023-09-19T03:40:18;8.88;;;4.93;;
82342;SDS011;72585;56.868;60.610;2023-09-19T03:42:45;6.82;;;4.72;;
82342;SDS011;72585;56.868;60.610;2023-09-19T03:45:11;7.75;;;5.22;;
82342;SDS011;72585;56.868;60.610;2023-09-19T03:47:38;14.13;;;5.18;;
82342;SDS011;72585;56.868;60.610;2023-09-19T03:50:04;10.52;;;4.57;;
82342;SDS011;72585;56.868;60.610;2023-09-19T03:52:29;10.70;;;4.72;;
82342;SDS011;72585;56.868;60.610;2023-09-19T03:54:55;8.15;;;5.60;;
82342;SDS011;72585;56.868;60.610;2023-09-19T03:57:20;7.38;;;5.13;;
82342;SDS011;72585;56.868;60.610;2023-09-19T03:59:46;8.88;;;5.15;;
82342;SDS011;72585;56.868;60.610;2023-09-19T04:02:12;9.27;;;5.13;;
82342;SDS011;72585;56.868;60.610;2023-09-19T04:04:47;7.03;;;4.85;;
82342;SDS011;72585;56.868;60.610;2023-09-19T04:07:12;10.75;;;4.47;;
82342;SDS011;72585;56.868;60.610;2023-09-19T04:09:38;8.10;;;5.47;;
82342;SDS011;72585;56.868;60.610;2023-09-19T04:12:03;7.88;;;4.43;;
82342;SDS011;72585;56.868;60.610;2023-09-19T04:14:30;8.52;;;4.45;;
82342;SDS011;72585;56.868;60.610;2023-09-19T04:16:55;11.20;;;5.60;;
82342;SDS011;72585;56.868;60.610;2023-09-19T04:19:20;7.80;;;4.63;;
82342;SDS011;72585;56.868;60.610;2023-09-19T04:21:47;10.27;;;4.85;;
82342;SDS011;72585;56.868;60.610;2023-09-19T04:24:13;7.80;;;4.30;;
82342;SDS011;72585;56.868;60.610;2023-09-19T04:26:39;5.85;;;4.20;;
82342;SDS011;72585;56.868;60.610;2023-09-19T04:29:04;6.00;;;4.38;;
82342;SDS011;72585;56.868;60.610;2023-09-19T04:31:31;6.03;;;4.32;;
82342;SDS011;72585;56.868;60.610;2023-09-19T04:33:57;8.95;;;4.40;;
82342;SDS011;72585;56.868;60.610;2023-09-19T04:36:24;7.38;;;4.20;;
82342;SDS011;72585;56.868;60.610;2023-09-19T04:38:49;6.38;;;3.65;;
82342;SDS011;72585;56.868;60.610;2023-09-19T04:41:15;9.93;;;4.75;;
82342;SDS011;72585;56.868;60.610;2023-09-19T04:43:40;8.52;;;4.00;;
82342;SDS011;72585;56.868;60.610;2023-09-19T04:46:06;6.78;;;4.57;;
82342;SDS011;72585;56.868;60.610;2023-09-19T04:48:32;6.03;;;3.72;;
82342;SDS011;72585;56.868;60.610;2023-09-19T04:50:59;8.35;;;4.65;;
82342;SDS011;72585;56.868;60.610;2023-09-19T04:53:25;12.98;;;4.20;;
82342;SDS011;72585;56.868;60.610;2023-09-19T04:55:51;15.23;;;4.03;;
82342;SDS011;72585;56.868;60.610;2023-09-19T04:58:18;5.20;;;3.95;;
82342;SDS011;72585;56.868;60.610;2023-09-19T05:00:45;6.68;;;4.00;;
82342;SDS011;72585;56.868;60.610;2023-09-19T05:03:10;13.60;;;4.85;;
82342;SDS011;72585;56.868;60.610;2023-09-19T05:05:35;5.97;;;3.65;;
82342;SDS011;72585;56.868;60.610;2023-09-19T05:08:03;6.47;;;4.10;;
82342;SDS011;72585;56.868;60.610;2023-09-19T05:10:30;15.50;;;4.35;;
82342;SDS011;72585;56.868;60.610;2023-09-19T05:12:56;12.55;;;4.65;;
82342;SDS011;72585;56.868;60.610;2023-09-19T05:15:21;6.68;;;4.50;;
82342;SDS011;72585;56.868;60.610;2023-09-19T05:17:47;9.27;;;5.07;;
82342;SDS011;72585;56.868;60.610;2023-09-19T05:20:13;6.82;;;4.45;;
82342;SDS011;72585;56.868;60.610;2023-09-19T05:22:42;7.78;;;3.75;;
82342;SDS011;72585;56.868;60.610;2023-09-19T05:25:09;6.85;;;4.10;;
82342;SDS011;72585;56.868;60.610;2023-09-19T05:27:35;5.82;;;3.60;;
82342;SDS011;72585;56.868;60.610;2023-09-19T05:30:00;8.73;;;4.22;;
82342;SDS011;72585;56.868;60.610;2023-09-19T05:32:26;9.23;;;3.17;;
82342;SDS011;72585;56.868;60.610;2023-09-19T05:34:51;12.52;;;3.95;;
82342;SDS011;72585;56.868;60.610;2023-09-19T05:37:21;11.27;;;3.58;;
82342;SDS011;72585;56.868;60.610;2023-09-19T05:39:46;6.13;;;3.72;;
82342;SDS011;72585;56.868;60.610;2023-09-19T05:42:12;5.80;;;4.05;;
82342;SDS011;72585;56.868;60.610;2023-09-19T05:44:37;7.63;;;3.40;;
82342;SDS011;72585;56.868;60.610;2023-09-19T05:47:03;6.93;;;4.93;;
82342;SDS011;72585;56.868;60.610;2023-09-19T05:49:29;9.43;;;3.78;;
82342;SDS011;72585;56.868;60.610;2023-09-19T05:51:54;9.52;;;4.22;;
82342;SDS011;72585;56.868;60.610;2023-09-19T05:54:22;8.38;;;4.82;;
82342;SDS011;72585;56.868;60.610;2023-09-19T05:56:47;7.22;;;4.05;;
82342;SDS011;72585;56.868;60.610;2023-09-19T05:59:14;8.27;;;3.65;;
82342;SDS011;72585;56.868;60.610;2023-09-19T06:01:41;5.38;;;3.50;;
82342;SDS011;72585;56.868;60.610;2023-09-19T06:04:07;7.22;;;3.85;;
82342;SDS011;72585;56.868;60.610;2023-09-19T06:06:32;5.90;;;3.72;;
82342;SDS011;72585;56.868;60.610;2023-09-19T06:09:02;10.50;;;4.03;;
82342;SDS011;72585;56.868;60.610;2023-09-19T06:11:27;7.60;;;3.42;;
82342;SDS011;72585;56.868;60.610;2023-09-19T06:13:54;7.18;;;3.75;;
82342;SDS011;72585;56.868;60.610;2023-09-19T06:16:19;4.75;;;3.67;;
82342;SDS011;72585;56.868;60.610;2023-09-19T06:18:45;7.10;;;3.80;;
82342;SDS011;72585;56.868;60.610;2023-09-19T06:21:10;7.55;;;3.60;;
82342;SDS011;72585;56.868;60.610;2023-09-19T06:23:36;4.78;;;3.38;;
82342;SDS011;72585;56.868;60.610;2023-09-19T06:26:01;6.50;;;3.50;;
82342;SDS011;72585;56.868;60.610;2023-09-19T06:28:28;19.48;;;4.30;;
82342;SDS011;72585;56.868;60.610;2023-09-19T06:30:54;9.18;;;2.67;;
82342;SDS011;72585;56.868;60.610;2023-09-19T06:33:20;10.85;;;3.25;;
82342;SDS011;72585;56.868;60.610;2023-09-19T06:35:47;5.60;;;3.28;;
82342;SDS011;72585;56.868;60.610;2023-09-19T06:38:13;11.32;;;3.65;;
82342;SDS011;72585;56.868;60.610;2023-09-19T06:40:40;4.47;;;3.33;;
82342;SDS011;72585;56.868;60.610;2023-09-19T06:43:09;6.00;;;3.35;;
82342;SDS011;72585;56.868;60.610;2023-09-19T06:45:34;7.70;;;3.55;;
82342;SDS011;72585;56.868;60.610;2023-09-19T06:47:59;7.00;;;3.63;;
82342;SDS011;72585;56.868;60.610;2023-09-19T06:50:26;4.65;;;3.60;;
82342;SDS011;72585;56.868;60.610;2023-09-19T06:52:53;11.32;;;3.80;;
82342;SDS011;72585;56.868;60.610;2023-09-19T06:55:19;4.07;;;3.17;;
82342;SDS011;72585;56.868;60.610;2023-09-19T06:57:48;5.97;;;3.50;;
82342;SDS011;72585;56.868;60.610;2023-09-19T07:00:13;8.32;;;3.00;;
82342;SDS011;72585;56.868;60.610;2023-09-19T07:02:56;6.97;;;3.13;;
82342;SDS011;72585;56.868;60.610;2023-09-19T07:05:23;6.97;;;3.28;;
82342;SDS011;72585;56.868;60.610;2023-09-19T07:07:49;7.43;;;3.38;;
82342;SDS011;72585;56.868;60.610;2023-09-19T07:10:14;4.32;;;2.92;;
82342;SDS011;72585;56.868;60.610;2023-09-19T07:12:40;13.85;;;3.10;;
82342;SDS011;72585;56.868;60.610;2023-09-19T07:15:07;9.82;;;3.50;;
82342;SDS011;72585;56.868;60.610;2023-09-19T07:17:32;7.20;;;3.83;;
82342;SDS011;72585;56.868;60.610;2023-09-19T07:19:58;6.95;;;3.15;;
82342;SDS011;72585;56.868;60.610;2023-09-19T07:22:24;5.63;;;3.22;;
82342;SDS011;72585;56.868;60.610;2023-09-19T07:24:49;4.53;;;2.90;;
82342;SDS011;72585;56.868;60.610;2023-09-19T07:27:14;8.23;;;3.10;;
82342;SDS011;72585;56.868;60.610;2023-09-19T07:29:40;8.77;;;3.35;;
82342;SDS011;72585;56.868;60.610;2023-09-19T07:32:05;14.18;;;3.88;;
82342;SDS011;72585;56.868;60.610;2023-09-19T07:34:31;6.60;;;3.65;;
82342;SDS011;72585;56.868;60.610;2023-09-19T07:36:57;10.18;;;3.83;;
82342;SDS011;72585;56.868;60.610;2023-09-19T07:39:22;8.43;;;3.45;;
82342;SDS011;72585;56.868;60.610;2023-09-19T07:41:48;9.32;;;3.72;;
82342;SDS011;72585;56.868;60.610;2023-09-19T07:44:15;9.20;;;3.85;;
82342;SDS011;72585;56.868;60.610;2023-09-19T07:46:40;5.18;;;3.22;;
82342;SDS011;72585;56.868;60.610;2023-09-19T07:49:05;7.45;;;3.58;;
82342;SDS011;72585;56.868;60.610;2023-09-19T07:51:31;4.20;;;3.40;;
82342;SDS011;72585;56.868;60.610;2023-09-19T07:53:58;5.30;;;3.92;;
82342;SDS011;72585;56.868;60.610;2023-09-19T07:56:23;7.60;;;3.75;;
82342;SDS011;72585;56.868;60.610;2023-09-19T07:58:50;10.32;;;4.50;;
82342;SDS011;72585;56.868;60.610;2023-09-19T08:01:17;8.68;;;3.97;;
82342;SDS011;72585;56.868;60.610;2023-09-19T08:03:42;9.90;;;4.47;;
82342;SDS011;72585;56.868;60.610;2023-09-19T08:06:09;6.82;;;4.45;;
82342;SDS011;72585;56.868;60.610;2023-09-19T08:08:35;8.25;;;4.05;;
82342;SDS011;72585;56.868;60.610;2023-09-19T08:11:02;8.00;;;4.63;;
82342;SDS011;72585;56.868;60.610;2023-09-19T08:13:29;6.30;;;3.55;;
82342;SDS011;72585;56.868;60.610;2023-09-19T08:15:56;8.63;;;4.03;;
82342;SDS011;72585;56.868;60.610;2023-09-19T08:18:21;4.28;;;2.92;;
82342;SDS011;72585;56.868;60.610;2023-09-19T08:20:51;5.70;;;2.95;;
82342;SDS011;72585;56.868;60.610;2023-09-19T08:23:16;3.85;;;2.63;;
82342;SDS011;72585;56.868;60.610;2023-09-19T08:25:45;7.28;;;2.85;;
82342;SDS011;72585;56.868;60.610;2023-09-19T08:28:10;5.38;;;2.75;;
82342;SDS011;72585;56.868;60.610;2023-09-19T08:30:44;4.13;;;2.60;;
82342;SDS011;72585;56.868;60.610;2023-09-19T08:33:09;5.55;;;2.80;;
82342;SDS011;72585;56.868;60.610;2023-09-19T08:35:35;4.97;;;2.70;;
82342;SDS011;72585;56.868;60.610;2023-09-19T08:38:03;3.88;;;2.65;;
82342;SDS011;72585;56.868;60.610;2023-09-19T08:40:32;13.85;;;2.78;;
82342;SDS011;72585;56.868;60.610;2023-09-19T08:42:58;3.28;;;2.15;;
82342;SDS011;72585;56.868;60.610;2023-09-19T08:45:24;6.05;;;2.63;;
82342;SDS011;72585;56.868;60.610;2023-09-19T08:50:25;4.18;;;2.40;;
82342;SDS011;72585;56.868;60.610;2023-09-19T08:52:51;7.20;;;3.33;;
82342;SDS011;72585;56.868;60.610;2023-09-19T08:55:19;7.70;;;3.50;;
82342;SDS011;72585;56.868;60.610;2023-09-19T08:57:51;3.65;;;2.22;;
82342;SDS011;72585;56.868;60.610;2023-09-19T09:00:17;4.95;;;2.85;;
82342;SDS011;72585;56.868;60.610;2023-09-19T09:02:43;4.20;;;3.28;;
82342;SDS011;72585;56.868;60.610;2023-09-19T09:05:09;3.30;;;2.35;;
82342;SDS011;72585;56.868;60.610;2023-09-19T09:07:36;2.90;;;2.38;;
82342;SDS011;72585;56.868;60.610;2023-09-19T09:10:02;4.95;;;3.20;;
82342;SDS011;72585;56.868;60.610;2023-09-19T09:12:27;6.32;;;2.95;;
82342;SDS011;72585;56.868;60.610;2023-09-19T09:14:54;7.85;;;2.92;;
82342;SDS011;72585;56.868;60.610;2023-09-19T09:17:22;7.75;;;2.63;;
82342;SDS011;72585;56.868;60.610;2023-09-19T09:19:47;3.60;;;2.63;;
82342;SDS011;72585;56.868;60.610;2023-09-19T09:22:13;5.63;;;2.55;;
82342;SDS011;72585;56.868;60.610;2023-09-19T09:24:51;12.25;;;2.65;;
82342;SDS011;72585;56.868;60.610;2023-09-19T09:27:19;4.70;;;2.42;;
82342;SDS011;72585;56.868;60.610;2023-09-19T09:29:48;3.85;;;2.78;;
82342;SDS011;72585;56.868;60.610;2023-09-19T09:32:17;3.90;;;2.40;;
82342;SDS011;72585;56.868;60.610;2023-09-19T09:34:47;7.65;;;3.20;;
82342;SDS011;72585;56.868;60.610;2023-09-19T09:37:14;5.32;;;3.05;;
82342;SDS011;72585;56.868;60.610;2023-09-19T09:39:40;6.47;;;2.80;;
82342;SDS011;72585;56.868;60.610;2023-09-19T09:42:28;4.30;;;2.80;;
82342;SDS011;72585;56.868;60.610;2023-09-19T09:45:12;7.03;;;2.92;;
82342;SDS011;72585;56.868;60.610;2023-09-19T09:47:44;4.82;;;2.47;;
82342;SDS011;72585;56.868;60.610;2023-09-19T09:50:34;4.07;;;2.75;;
82342;SDS011;72585;56.868;60.610;2023-09-19T09:53:25;10.02;;;3.47;;
82342;SDS011;72585;56.868;60.610;2023-09-19T09:56:14;4.03;;;3.13;;
82342;SDS011;72585;56.868;60.610;2023-09-19T09:58:50;3.55;;;2.33;;
82342;SDS011;72585;56.868;60.610;2023-09-19T10:01:20;4.20;;;2.45;;
82342;SDS011;72585;56.868;60.610;2023-09-19T10:03:46;2.78;;;2.25;;
82342;SDS011;72585;56.868;60.610;2023-09-19T10:06:16;8.68;;;2.05;;
82342;SDS011;72585;56.868;60.610;2023-09-19T10:09:07;6.18;;;2.35;;
82342;SDS011;72585;56.868;60.610;2023-09-19T10:11:58;4.90;;;2.35;;
82342;SDS011;72585;56.868;60.610;2023-09-19T10:14:28;2.95;;;2.15;;
82342;SDS011;72585;56.868;60.610;2023-09-19T10:16:56;3.63;;;2.20;;
82342;SDS011;72585;56.868;60.610;2023-09-19T10:19:30;7.18;;;2.78;;
82342;SDS011;72585;56.868;60.610;2023-09-19T10:22:01;3.65;;;2.22;;
82342;SDS011;72585;56.868;60.610;2023-09-19T10:24:27;4.80;;;2.95;;
82342;SDS011;72585;56.868;60.610;2023-09-19T10:26:53;3.55;;;2.40;;
82342;SDS011;72585;56.868;60.610;2023-09-19T10:29:19;3.10;;;2.53;;
82342;SDS011;72585;56.868;60.610;2023-09-19T10:31:47;2.75;;;2.05;;
82342;SDS011;72585;56.868;60.610;2023-09-19T10:34:14;4.95;;;2.38;;
82342;SDS011;72585;56.868;60.610;2023-09-19T10:36:39;4.97;;;2.30;;
82342;SDS011;72585;56.868;60.610;2023-09-19T10:39:10;3.30;;;2.70;;
82342;SDS011;72585;56.868;60.610;2023-09-19T10:41:37;3.33;;;2.40;;
82342;SDS011;72585;56.868;60.610;2023-09-19T10:44:03;6.63;;;2.45;;
82342;SDS011;72585;56.868;60.610;2023-09-19T10:46:30;7.80;;;2.22;;
82342;SDS011;72585;56.868;60.610;2023-09-19T10:48:58;4.57;;;2.47;;
82342;SDS011;72585;56.868;60.610;2023-09-19T10:51:24;3.40;;;2.25;;
82342;SDS011;72585;56.868;60.610;2023-09-19T10:54:05;2.20;;;2.00;;
82342;SDS011;72585;56.868;60.610;2023-09-19T10:56:33;4.65;;;2.10;;
82342;SDS011;72585;56.868;60.610;2023-09-19T10:59:06;2.63;;;2.20;;
82342;SDS011;72585;56.868;60.610;2023-09-19T11:01:43;2.92;;;1.90;;
82342;SDS011;72585;56.868;60.610;2023-09-19T11:04:28;7.78;;;1.90;;
82342;SDS011;72585;56.868;60.610;2023-09-19T11:07:08;2.45;;;2.22;;
82342;SDS011;72585;56.868;60.610;2023-09-19T11:09:47;2.53;;;1.98;;
82342;SDS011;72585;56.868;60.610;2023-09-19T11:15:06;6.35;;;2.65;;
82342;SDS011;72585;56.868;60.610;2023-09-19T11:17:36;2.88;;;2.35;;
82342;SDS011;72585;56.868;60.610;2023-09-19T11:30:52;2.97;;;1.98;;
82342;SDS011;72585;56.868;60.610;2023-09-19T11:33:19;6.55;;;1.85;;
82342;SDS011;72585;56.868;60.610;2023-09-19T11:36:11;2.63;;;1.98;;
82342;SDS011;72585;56.868;60.610;2023-09-19T11:38:56;2.95;;;1.92;;
82342;SDS011;72585;56.868;60.610;2023-09-19T11:43:48;7.43;;;2.15;;
82342;SDS011;72585;56.868;60.610;2023-09-19T11:46:13;2.45;;;1.80;;
82342;SDS011;72585;56.868;60.610;2023-09-19T11:48:42;2.63;;;2.30;;
82342;SDS011;72585;56.868;60.610;2023-09-19T11:51:11;2.33;;;1.80;;
82342;SDS011;72585;56.868;60.610;2023-09-19T11:53:44;2.17;;;1.77;;
82342;SDS011;72585;56.868;60.610;2023-09-19T11:56:10;2.03;;;1.67;;
82342;SDS011;72585;56.868;60.610;2023-09-19T11:58:36;9.57;;;2.03;;
82342;SDS011;72585;56.868;60.610;2023-09-19T12:01:02;3.50;;;1.92;;
82342;SDS011;72585;56.868;60.610;2023-09-19T12:03:33;2.47;;;2.13;;
82342;SDS011;72585;56.868;60.610;2023-09-19T12:06:00;2.50;;;1.85;;
82342;SDS011;72585;56.868;60.610;2023-09-19T12:08:27;4.05;;;2.15;;
82342;SDS011;72585;56.868;60.610;2023-09-19T12:10:53;3.08;;;1.80;;
82342;SDS011;72585;56.868;60.610;2023-09-19T12:13:20;3.53;;;1.70;;
82342;SDS011;72585;56.868;60.610;2023-09-19T12:15:46;2.45;;;1.85;;
82342;SDS011;72585;56.868;60.610;2023-09-19T12:18:27;2.78;;;2.15;;
82342;SDS011;72585;56.868;60.610;2023-09-19T12:20:53;2.45;;;2.10;;
82342;SDS011;72585;56.868;60.610;2023-09-19T12:23:19;7.07;;;3.22;;
82342;SDS011;72585;56.868;60.610;2023-09-19T12:25:46;7.22;;;2.25;;
82342;SDS011;72585;56.868;60.610;2023-09-19T12:28:15;3.15;;;2.17;;
82342;SDS011;72585;56.868;60.610;2023-09-19T12:30:42;3.03;;;2.35;;
82342;SDS011;72585;56.868;60.610;2023-09-19T12:33:19;2.50;;;1.95;;
82342;SDS011;72585;56.868;60.610;2023-09-19T12:35:46;2.65;;;2.10;;
82342;SDS011;72585;56.868;60.610;2023-09-19T12:38:22;6.70;;;2.10;;
82342;SDS011;72585;56.868;60.610;2023-09-19T12:40:48;2.45;;;1.52;;
82342;SDS011;72585;56.868;60.610;2023-09-19T12:43:14;3.03;;;1.73;;
82342;SDS011;72585;56.868;60.610;2023-09-19T12:45:40;2.92;;;2.20;;
82342;SDS011;72585;56.868;60.610;2023-09-19T12:48:22;6.32;;;2.08;;
82342;SDS011;72585;56.868;60.610;2023-09-19T12:51:10;5.35;;;2.00;;
82342;SDS011;72585;56.868;60.610;2023-09-19T12:53:39;3.75;;;2.47;;
82342;SDS011;72585;56.868;60.610;2023-09-19T12:56:09;2.30;;;2.10;;
82342;SDS011;72585;56.868;60.610;2023-09-19T12:58:54;7.43;;;2.25;;
82342;SDS011;72585;56.868;60.610;2023-09-19T13:01:20;4.57;;;2.47;;
82342;SDS011;72585;56.868;60.610;2023-09-19T13:04:10;5.13;;;2.15;;
82342;SDS011;72585;56.868;60.610;2023-09-19T13:06:35;4.38;;;2.33;;
82342;SDS011;72585;56.868;60.610;2023-09-19T13:09:10;2.40;;;2.00;;
82342;SDS011;72585;56.868;60.610;2023-09-19T13:11:37;9.70;;;2.40;;
82342;SDS011;72585;56.868;60.610;2023-09-19T13:22:04;6.65;;;2.22;;
82342;SDS011;72585;56.868;60.610;2023-09-19T13:24:31;1.52;;;1.42;;
82342;SDS011;72585;56.868;60.610;2023-09-19T13:27:00;2.40;;;1.58;;
82342;SDS011;72585;56.868;60.610;2023-09-19T13:29:25;3.00;;;1.90;;
82342;SDS011;72585;56.868;60.610;2023-09-19T13:31:51;2.38;;;1.55;;
82342;SDS011;72585;56.868;60.610;2023-09-19T13:34:20;4.28;;;1.80;;
82342;SDS011;72585;56.868;60.610;2023-09-19T13:36:46;4.20;;;1.63;;
82342;SDS011;72585;56.868;60.610;2023-09-19T13:39:15;1.85;;;1.63;;
82342;SDS011;72585;56.868;60.610;2023-09-19T13:41:42;1.40;;;1.30;;
82342;SDS011;72585;56.868;60.610;2023-09-19T13:44:08;1.63;;;1.52;;
82342;SDS011;72585;56.868;60.610;2023-09-19T13:46:36;3.58;;;1.73;;
82342;SDS011;72585;56.868;60.610;2023-09-19T13:49:01;1.88;;;1.42;;
82342;SDS011;72585;56.868;60.610;2023-09-19T13:51:31;2.25;;;1.88;;
82342;SDS011;72585;56.868;60.610;2023-09-19T13:53:57;2.38;;;1.83;;
82342;SDS011;72585;56.868;60.610;2023-09-19T13:56:22;1.73;;;1.63;;
82342;SDS011;72585;56.868;60.610;2023-09-19T13:58:48;2.20;;;1.50;;
82342;SDS011;72585;56.868;60.610;2023-09-19T14:01:13;3.22;;;1.80;;
82342;SDS011;72585;56.868;60.610;2023-09-19T14:03:39;4.57;;;1.70;;
82342;SDS011;72585;56.868;60.610;2023-09-19T14:06:05;7.72;;;1.83;;
82342;SDS011;72585;56.868;60.610;2023-09-19T14:08:30;1.92;;;1.65;;
82342;SDS011;72585;56.868;60.610;2023-09-19T14:10:55;2.60;;;2.10;;
82342;SDS011;72585;56.868;60.610;2023-09-19T14:13:21;2.47;;;1.98;;
82342;SDS011;72585;56.868;60.610;2023-09-19T14:15:46;2.50;;;1.55;;
82342;SDS011;72585;56.868;60.610;2023-09-19T14:18:12;1.95;;;1.45;;
82342;SDS011;72585;56.868;60.610;2023-09-19T14:20:38;3.85;;;1.50;;
82342;SDS011;72585;56.868;60.610;2023-09-19T14:23:05;2.28;;;1.92;;
82342;SDS011;72585;56.868;60.610;2023-09-19T14:25:33;3.47;;;1.73;;
82342;SDS011;72585;56.868;60.610;2023-09-19T14:27:59;3.63;;;1.95;;
82342;SDS011;72585;56.868;60.610;2023-09-19T14:30:24;2.03;;;1.80;;
82342;SDS011;72585;56.868;60.610;2023-09-19T14:32:50;3.60;;;1.70;;
82342;SDS011;72585;56.868;60.610;2023-09-19T14:35:16;3.72;;;1.90;;
82342;SDS011;72585;56.868;60.610;2023-09-19T14:37:41;3.85;;;1.67;;
82342;SDS011;72585;56.868;60.610;2023-09-19T14:40:07;4.18;;;2.03;;
82342;SDS011;72585;56.868;60.610;2023-09-19T14:42:34;13.15;;;2.10;;
82342;SDS011;72585;56.868;60.610;2023-09-19T14:45:02;4.07;;;2.15;;
82342;SDS011;72585;56.868;60.610;2023-09-19T14:47:27;1.90;;;1.55;;
82342;SDS011;72585;56.868;60.610;2023-09-19T14:49:53;1.92;;;1.77;;
82342;SDS011;72585;56.868;60.610;2023-09-19T14:52:18;3.67;;;1.92;;
82342;SDS011;72585;56.868;60.610;2023-09-19T14:54:44;2.00;;;1.65;;
82342;SDS011;72585;56.868;60.610;2023-09-19T14:57:09;2.25;;;1.45;;
82342;SDS011;72585;56.868;60.610;2023-09-19T14:59:35;2.13;;;1.80;;
82342;SDS011;72585;56.868;60.610;2023-09-19T15:02:06;2.47;;;1.92;;
82342;SDS011;72585;56.868;60.610;2023-09-19T15:04:31;3.20;;;1.83;;
82342;SDS011;72585;56.868;60.610;2023-09-19T15:06:58;1.90;;;1.63;;
82342;SDS011;72585;56.868;60.610;2023-09-19T15:09:25;3.90;;;2.00;;
82342;SDS011;72585;56.868;60.610;2023-09-19T15:11:53;6.05;;;2.42;;
82342;SDS011;72585;56.868;60.610;2023-09-19T15:14:19;8.23;;;2.47;;
82342;SDS011;72585;56.868;60.610;2023-09-19T15:16:45;18.55;;;3.00;;
82342;SDS011;72585;56.868;60.610;2023-09-19T15:19:10;10.75;;;3.75;;
82342;SDS011;72585;56.868;60.610;2023-09-19T15:21:36;5.95;;;2.38;;